createdAt,value
2022-11-29T00:01:17.823Z,1.40
2022-11-29T00:03:45.911Z,1.40
2022-11-29T00:06:16.013Z,1.30
2022-11-29T00:08:45.619Z,2.00
2022-11-29T00:11:37.143Z,1.30
2022-11-29T00:14:05.440Z,1.30
2022-11-29T00:16:33.653Z,1.40
2022-11-29T00:19:02.062Z,1.40
2022-11-29T00:21:30.110Z,1.30
2022-11-29T00:23:59.510Z,1.30
2022-11-29T00:26:27.514Z,1.40
2022-11-29T00:28:55.843Z,1.40
2022-11-29T00:31:26.091Z,1.40
2022-11-29T00:33:54.811Z,1.40
2022-11-29T00:36:22.809Z,1.40
2022-11-29T00:38:50.864Z,1.40
2022-11-29T00:41:20.478Z,1.40
2022-11-29T00:43:48.562Z,1.30
2022-11-29T00:46:16.582Z,1.30
2022-11-29T00:48:44.839Z,1.40
2022-11-29T00:51:13.339Z,1.30
2022-11-29T00:53:41.515Z,1.40
2022-11-29T00:56:09.961Z,1.40
2022-11-29T00:58:39.474Z,1.30
2022-11-29T01:01:07.749Z,1.40
2022-11-29T01:03:35.978Z,1.40
2022-11-29T01:06:06.743Z,1.40
2022-11-29T01:08:35.220Z,1.40
2022-11-29T01:11:05.568Z,1.50
2022-11-29T01:13:33.716Z,1.40
2022-11-29T01:16:03.081Z,1.40
2022-11-29T01:18:31.535Z,1.40
2022-11-29T01:21:01.470Z,1.40
2022-11-29T01:23:30.108Z,1.40
2022-11-29T01:25:59.885Z,1.40
2022-11-29T01:28:28.396Z,1.40
2022-11-29T01:30:56.468Z,1.40
2022-11-29T01:33:25.914Z,1.40
2022-11-29T01:35:55.652Z,1.40
2022-11-29T01:38:24.198Z,1.40
2022-11-29T01:40:59.799Z,1.30
2022-11-29T01:43:28.275Z,1.30
2022-11-29T01:45:56.406Z,1.40
2022-11-29T01:48:28.636Z,1.30
2022-11-29T01:51:00.767Z,1.40
2022-11-29T01:53:29.360Z,1.30
2022-11-29T01:56:02.282Z,1.30
2022-11-29T01:58:30.936Z,1.30
2022-11-29T02:00:59.810Z,1.30
2022-11-29T02:03:29.229Z,1.30
2022-11-29T02:05:57.524Z,1.30
2022-11-29T02:08:30.832Z,1.30
2022-11-29T02:11:23.778Z,1.30
2022-11-29T02:14:04.242Z,1.30
2022-11-29T02:16:39.553Z,1.50
2022-11-29T02:19:29.027Z,1.40
2022-11-29T02:22:00.405Z,1.60
2022-11-29T02:24:48.970Z,1.30
2022-11-29T02:28:05.043Z,1.30
2022-11-29T02:31:00.235Z,1.30
2022-11-29T02:34:00.695Z,1.30
2022-11-29T02:36:46.262Z,1.30
2022-11-29T02:39:40.150Z,1.20
2022-11-29T02:42:54.144Z,1.20
2022-11-29T02:45:38.499Z,1.20
2022-11-29T02:48:21.168Z,1.20
2022-11-29T02:50:56.358Z,1.30
2022-11-29T02:53:31.359Z,1.30
2022-11-29T02:56:08.529Z,1.20
2022-11-29T02:58:45.141Z,1.90
2022-11-29T03:01:18.927Z,1.30
2022-11-29T03:03:54.311Z,1.30
2022-11-29T03:06:35.012Z,1.30
2022-11-29T03:09:11.515Z,1.30
2022-11-29T03:11:46.472Z,1.30
2022-11-29T03:14:26.444Z,1.30
2022-11-29T03:17:06.703Z,1.30
2022-11-29T03:19:52.497Z,1.30
2022-11-29T03:22:32.736Z,1.30
2022-11-29T03:25:07.519Z,1.30
2022-11-29T03:27:42.277Z,1.30
2022-11-29T03:30:12.892Z,1.30
2022-11-29T03:32:50.546Z,1.30
2022-11-29T03:35:23.400Z,1.30
2022-11-29T03:37:58.880Z,1.30
2022-11-29T03:40:31.987Z,1.30
2022-11-29T03:43:05.444Z,1.30
2022-11-29T03:45:40.491Z,1.30
2022-11-29T03:48:11.851Z,1.30
2022-11-29T03:50:43.653Z,1.30
2022-11-29T03:53:21.316Z,1.20
2022-11-29T03:55:57.723Z,1.30
2022-11-29T03:58:38.154Z,1.30
2022-11-29T04:01:40.391Z,1.30
2022-11-29T04:04:37.102Z,1.30
2022-11-29T04:07:18.378Z,1.30
2022-11-29T04:10:04.955Z,1.30
2022-11-29T04:13:01.974Z,1.20
2022-11-29T04:16:07.525Z,1.40
2022-11-29T04:19:04.483Z,1.30
2022-11-29T04:21:44.376Z,1.30
2022-11-29T04:24:56.843Z,1.30
2022-11-29T04:27:41.540Z,1.30
2022-11-29T04:30:18.784Z,1.30
2022-11-29T04:33:33.293Z,1.20
2022-11-29T04:36:35.073Z,1.30
2022-11-29T04:39:31.895Z,1.30
2022-11-29T04:42:21.280Z,1.30
2022-11-29T04:45:09.132Z,1.20
2022-11-29T04:47:57.008Z,1.30
2022-11-29T04:50:44.126Z,1.20
2022-11-29T04:53:34.668Z,1.20
2022-11-29T04:56:12.780Z,1.20
2022-11-29T04:58:49.940Z,1.20
2022-11-29T05:01:27.063Z,1.20
2022-11-29T05:04:03.138Z,1.10
2022-11-29T05:06:40.250Z,1.10
2022-11-29T05:09:16.783Z,1.10
2022-11-29T05:11:55.747Z,1.20
2022-11-29T05:14:36.008Z,1.10
2022-11-29T05:17:25.634Z,1.10
2022-11-29T05:20:13.135Z,1.10
2022-11-29T05:22:53.691Z,1.10
2022-11-29T05:25:36.987Z,1.10
2022-11-29T05:28:12.435Z,1.10
2022-11-29T05:31:14.157Z,1.10
2022-11-29T05:33:57.859Z,1.10
2022-11-29T05:36:38.783Z,1.10
2022-11-29T05:39:29.096Z,1.10
2022-11-29T05:42:12.812Z,1.10
2022-11-29T05:44:46.590Z,1.10
2022-11-29T05:47:28.252Z,1.10
2022-11-29T05:50:06.750Z,1.10
2022-11-29T05:52:50.630Z,1.10
2022-11-29T05:55:32.556Z,1.20
2022-11-29T05:58:03.233Z,1.00
2022-11-29T06:00:36.239Z,1.30
2022-11-29T06:03:13.952Z,1.30
2022-11-29T06:05:49.037Z,1.40
2022-11-29T06:08:22.155Z,1.00
2022-11-29T06:10:59.187Z,1.00
2022-11-29T06:13:39.705Z,1.10
2022-11-29T06:16:39.987Z,1.10
2022-11-29T06:19:30.829Z,1.10
2022-11-29T06:22:11.580Z,1.10
2022-11-29T06:24:51.723Z,1.30
2022-11-29T06:27:36.703Z,1.10
2022-11-29T06:30:10.745Z,1.20
2022-11-29T06:32:47.537Z,1.10
2022-11-29T06:35:34.935Z,1.30
2022-11-29T06:38:10.076Z,1.20
2022-11-29T06:40:38.654Z,1.20
2022-11-29T06:43:07.171Z,1.20
2022-11-29T06:45:35.819Z,1.20
2022-11-29T06:48:06.125Z,1.30
2022-11-29T06:50:41.814Z,1.20
2022-11-29T06:53:16.140Z,1.20
2022-11-29T06:55:53.634Z,1.20
2022-11-29T06:58:36.887Z,1.40
2022-11-29T07:01:16.592Z,1.20
2022-11-29T07:04:00.056Z,1.20
2022-11-29T07:06:30.461Z,1.30
2022-11-29T07:09:02.247Z,1.20
2022-11-29T07:11:30.800Z,1.20
2022-11-29T07:13:59.284Z,1.20
2022-11-29T07:16:31.382Z,1.10
2022-11-29T07:19:09.512Z,1.10
2022-11-29T07:21:49.285Z,1.90
2022-11-29T07:24:33.681Z,1.20
2022-11-29T07:27:09.442Z,1.10
2022-11-29T07:29:44.890Z,1.20
2022-11-29T07:32:22.105Z,1.10
2022-11-29T07:34:57.344Z,1.20
2022-11-29T07:37:34.942Z,1.10
2022-11-29T07:40:12.650Z,1.20
2022-11-29T07:42:52.622Z,1.10
2022-11-29T07:45:29.504Z,1.20
2022-11-29T07:47:57.537Z,1.10
2022-11-29T07:50:26.339Z,1.40
2022-11-29T07:52:56.406Z,1.10
2022-11-29T07:55:26.183Z,1.10
2022-11-29T07:57:54.448Z,1.20
2022-11-29T08:00:23.322Z,1.60
2022-11-29T08:02:52.282Z,1.20
2022-11-29T08:05:20.451Z,1.20
2022-11-29T08:07:48.699Z,1.10
2022-11-29T08:10:18.480Z,1.40
2022-11-29T08:12:50.006Z,1.10
2022-11-29T08:15:19.415Z,1.10
2022-11-29T08:17:48.051Z,1.10
2022-11-29T08:20:17.727Z,1.10
2022-11-29T08:22:45.746Z,1.10
2022-11-29T08:25:14.009Z,2.00
2022-11-29T08:27:43.762Z,1.20
2022-11-29T08:30:12.181Z,1.20
2022-11-29T08:32:40.203Z,1.20
2022-11-29T08:35:08.750Z,1.50
2022-11-29T08:37:37.183Z,1.20
2022-11-29T08:40:05.764Z,1.20
2022-11-29T08:42:33.824Z,1.30
2022-11-29T08:45:03.250Z,1.30
2022-11-29T08:47:37.071Z,1.30
2022-11-29T08:50:07.900Z,1.70
2022-11-29T08:52:54.998Z,1.30
2022-11-29T08:55:25.830Z,1.80
2022-11-29T08:57:55.974Z,1.30
2022-11-29T09:00:25.482Z,1.30
2022-11-29T09:02:53.594Z,1.30
2022-11-29T09:05:21.680Z,1.40
2022-11-29T09:07:49.790Z,1.50
2022-11-29T09:10:17.870Z,1.40
2022-11-29T09:12:46.358Z,1.60
2022-11-29T09:15:14.684Z,1.40
2022-11-29T09:17:44.118Z,1.40
2022-11-29T09:20:13.150Z,1.40
2022-11-29T09:22:41.312Z,1.50
2022-11-29T09:25:10.354Z,1.50
2022-11-29T09:27:38.382Z,1.50
2022-11-29T09:30:08.232Z,1.60
2022-11-29T09:32:36.530Z,1.60
2022-11-29T09:35:06.461Z,1.60
2022-11-29T09:37:36.951Z,1.50
2022-11-29T09:40:05.824Z,1.60
2022-11-29T09:42:47.303Z,1.60
2022-11-29T09:45:19.698Z,1.60
2022-11-29T09:48:21.651Z,1.60
2022-11-29T09:50:58.626Z,1.60
2022-11-29T09:53:46.591Z,1.60
2022-11-29T09:56:23.465Z,1.60
2022-11-29T09:58:58.658Z,1.70
2022-11-29T10:01:31.360Z,1.90
2022-11-29T10:04:03.802Z,1.70
2022-11-29T10:06:39.717Z,1.70
2022-11-29T10:09:14.683Z,1.90
2022-11-29T10:11:52.405Z,1.70
2022-11-29T10:14:26.001Z,1.80
2022-11-29T10:17:04.033Z,1.80
2022-11-29T10:19:36.240Z,1.70
2022-11-29T10:22:14.958Z,1.70
2022-11-29T10:24:46.212Z,1.80
2022-11-29T10:27:19.846Z,1.80
2022-11-29T10:29:51.035Z,1.90
2022-11-29T10:32:21.311Z,1.90
2022-11-29T10:34:50.605Z,1.90
2022-11-29T10:37:21.892Z,2.40
2022-11-29T10:39:53.796Z,2.10
2022-11-29T10:42:41.812Z,2.00
2022-11-29T10:45:19.108Z,2.10
2022-11-29T10:47:48.988Z,2.10
2022-11-29T10:50:21.828Z,2.10
2022-11-29T10:52:54.722Z,2.10
2022-11-29T10:55:28.950Z,2.10
2022-11-29T10:58:12.375Z,2.10
2022-11-29T11:01:02.241Z,2.10
2022-11-29T11:03:35.663Z,2.10
2022-11-29T11:06:08.089Z,2.10
2022-11-29T11:08:38.985Z,2.20
2022-11-29T11:11:08.935Z,2.40
2022-11-29T11:13:39.256Z,2.10
2022-11-29T11:16:16.600Z,2.20
2022-11-29T11:18:45.739Z,2.20
2022-11-29T11:21:16.007Z,2.20
2022-11-29T11:23:53.644Z,2.20
2022-11-29T11:26:22.216Z,2.30
2022-11-29T11:28:54.515Z,2.30
2022-11-29T11:31:31.927Z,2.20
2022-11-29T11:34:26.228Z,2.30
2022-11-29T11:36:54.957Z,2.20
2022-11-29T11:39:25.577Z,2.20
2022-11-29T11:42:11.521Z,2.30
2022-11-29T11:44:49.315Z,2.30
2022-11-29T11:47:20.775Z,2.30
2022-11-29T11:49:51.032Z,2.30
2022-11-29T11:52:23.072Z,2.30
2022-11-29T11:54:56.597Z,2.30
2022-11-29T11:57:26.121Z,2.30
2022-11-29T11:59:55.878Z,2.20
2022-11-29T12:02:29.944Z,2.30
2022-11-29T12:05:01.772Z,2.20
2022-11-29T12:08:06.168Z,2.30
2022-11-29T12:10:27.211Z,2.20
2022-11-29T12:12:56.966Z,2.30
2022-11-29T12:15:29.621Z,2.20
2022-11-29T12:18:04.115Z,2.20
2022-11-29T12:20:38.140Z,2.30
2022-11-29T12:23:27.837Z,2.20
2022-11-29T12:26:01.167Z,2.30
2022-11-29T12:28:31.455Z,2.30
2022-11-29T12:31:09.057Z,2.20
2022-11-29T12:33:49.132Z,2.20
2022-11-29T12:36:29.683Z,2.20
2022-11-29T12:39:19.808Z,2.30
2022-11-29T12:41:56.510Z,2.20
2022-11-29T12:44:46.252Z,2.20
2022-11-29T12:47:38.821Z,2.20
2022-11-29T12:50:25.878Z,2.20
2022-11-29T12:53:04.524Z,2.20
2022-11-29T12:55:43.817Z,2.20
2022-11-29T12:58:19.805Z,2.20
2022-11-29T13:00:54.304Z,2.20
2022-11-29T13:03:29.930Z,2.20
2022-11-29T13:06:10.307Z,2.20
2022-11-29T13:08:52.660Z,2.20
2022-11-29T13:11:25.215Z,2.10
2022-11-29T13:14:27.122Z,2.20
2022-11-29T13:16:57.459Z,2.30
2022-11-29T13:19:34.382Z,2.10
2022-11-29T13:22:11.893Z,2.10
2022-11-29T13:24:44.147Z,2.20
2022-11-29T13:27:18.225Z,2.20
2022-11-29T13:29:48.915Z,2.10
2022-11-29T13:32:31.194Z,2.10
2022-11-29T13:35:04.466Z,2.10
2022-11-29T13:37:39.433Z,2.10
2022-11-29T13:40:23.137Z,2.10
2022-11-29T13:42:58.244Z,1.70
2022-11-29T13:45:33.075Z,2.00
2022-11-29T13:48:02.512Z,2.00
2022-11-29T13:50:39.941Z,2.00
2022-11-29T13:53:16.231Z,2.00
2022-11-29T13:55:49.265Z,2.00
2022-11-29T13:58:36.574Z,2.00
2022-11-29T14:01:10.076Z,1.90
2022-11-29T14:03:40.510Z,1.90
2022-11-29T14:06:21.001Z,1.90
2022-11-29T14:09:27.450Z,1.90
2022-11-29T14:12:05.607Z,1.90
2022-11-29T14:14:41.022Z,1.90
2022-11-29T14:17:34.439Z,1.80
2022-11-29T14:20:50.363Z,1.80
2022-11-29T14:23:32.305Z,1.90
2022-11-29T14:26:37.217Z,1.80
2022-11-29T14:29:43.042Z,1.80
2022-11-29T14:32:23.236Z,1.80
2022-11-29T14:34:56.517Z,1.80
2022-11-29T14:37:50.019Z,1.80
2022-11-29T14:40:30.990Z,1.80
2022-11-29T14:42:59.492Z,1.80
2022-11-29T14:45:30.017Z,1.70
2022-11-29T14:48:00.186Z,1.80
2022-11-29T14:50:34.330Z,1.70
2022-11-29T14:53:03.045Z,1.70
2022-11-29T14:55:34.356Z,1.70
2022-11-29T14:58:18.025Z,1.70
2022-11-29T15:01:10.347Z,1.70
2022-11-29T15:03:47.813Z,1.70
2022-11-29T15:06:25.864Z,1.70
2022-11-29T15:09:02.859Z,1.70
2022-11-29T15:11:51.391Z,1.60
2022-11-29T15:14:30.655Z,1.70
2022-11-29T15:17:27.867Z,1.60
2022-11-29T15:20:25.571Z,1.60
2022-11-29T15:22:55.215Z,1.70
2022-11-29T15:25:25.141Z,1.70
2022-11-29T15:27:54.578Z,1.70
2022-11-29T15:30:30.833Z,1.80
2022-11-29T15:33:00.405Z,1.70
2022-11-29T15:35:30.645Z,1.60
2022-11-29T15:37:58.921Z,1.90
2022-11-29T15:40:34.529Z,1.60
2022-11-29T15:43:14.461Z,2.20
2022-11-29T15:45:48.261Z,1.60
2022-11-29T15:48:22.361Z,1.60
2022-11-29T15:51:05.566Z,1.50
2022-11-29T15:53:39.004Z,1.60
2022-11-29T15:56:15.881Z,1.50
2022-11-29T15:58:45.635Z,1.50
2022-11-29T16:01:22.282Z,2.00
2022-11-29T16:03:54.331Z,1.60
2022-11-29T16:06:29.743Z,1.50
2022-11-29T16:08:57.928Z,1.60
2022-11-29T16:11:28.829Z,1.50
2022-11-29T16:14:05.601Z,1.80
2022-11-29T16:16:35.646Z,1.60
2022-11-29T16:19:12.124Z,2.00
2022-11-29T16:21:44.873Z,1.60
2022-11-29T16:24:15.399Z,1.60
2022-11-29T16:26:46.466Z,1.60
2022-11-29T16:29:27.668Z,1.60
2022-11-29T16:31:56.186Z,1.60
2022-11-29T16:34:28.073Z,1.60
2022-11-29T16:37:06.641Z,1.60
2022-11-29T16:39:36.048Z,1.60
2022-11-29T16:42:09.380Z,1.60
2022-11-29T16:45:28.923Z,1.60
2022-11-29T16:48:00.162Z,1.60
2022-11-29T16:50:29.532Z,1.60
2022-11-29T16:53:35.003Z,2.00
2022-11-29T16:56:03.497Z,1.70
2022-11-29T16:58:31.667Z,1.60
2022-11-29T17:00:59.734Z,1.70
2022-11-29T17:03:27.813Z,1.60
2022-11-29T17:05:56.102Z,1.60
2022-11-29T17:08:24.138Z,1.60
2022-11-29T17:10:53.519Z,1.60
2022-11-29T17:13:21.550Z,1.60
2022-11-29T17:15:49.588Z,1.60
2022-11-29T17:18:17.628Z,1.60
2022-11-29T17:20:45.722Z,1.50
2022-11-29T17:23:14.167Z,1.50
2022-11-29T17:25:42.159Z,1.60
2022-11-29T17:28:11.640Z,1.60
2022-11-29T17:30:39.776Z,1.60
2022-11-29T17:33:07.783Z,1.60
2022-11-29T17:35:36.412Z,1.60
2022-11-29T17:38:04.404Z,1.50
2022-11-29T17:40:32.409Z,1.60
2022-11-29T17:43:00.432Z,1.50
2022-11-29T17:45:29.864Z,1.90
2022-11-29T17:48:00.145Z,1.60
2022-11-29T17:50:28.203Z,1.80
2022-11-29T17:52:56.202Z,1.60
2022-11-29T17:55:26.977Z,1.50
2022-11-29T17:57:57.572Z,1.50
2022-11-29T18:00:25.763Z,1.60
2022-11-29T18:02:55.202Z,1.60
2022-11-29T18:05:23.303Z,1.50
2022-11-29T18:08:00.306Z,1.60
2022-11-29T18:10:29.446Z,1.60
2022-11-29T18:12:57.819Z,1.60
2022-11-29T18:15:25.824Z,1.80
2022-11-29T18:17:55.174Z,1.60
2022-11-29T18:20:23.206Z,1.60
2022-11-29T18:22:51.206Z,1.60
2022-11-29T18:25:38.103Z,1.60
2022-11-29T18:28:08.969Z,2.00
2022-11-29T18:30:37.026Z,1.60
2022-11-29T18:33:06.669Z,1.60
2022-11-29T18:35:34.654Z,1.60
2022-11-29T18:38:18.106Z,1.60
2022-11-29T18:40:46.747Z,2.00
2022-11-29T18:43:17.397Z,1.60
2022-11-29T18:45:45.630Z,1.60
2022-11-29T18:48:15.197Z,1.60
2022-11-29T18:50:44.258Z,1.60
2022-11-29T18:53:13.657Z,1.60
2022-11-29T18:55:41.696Z,1.60
2022-11-29T18:58:12.238Z,1.60
2022-11-29T19:00:40.866Z,1.90
2022-11-29T19:03:08.865Z,1.60
2022-11-29T19:05:38.216Z,1.70
2022-11-29T19:08:06.470Z,2.10
2022-11-29T19:10:34.467Z,1.60
2022-11-29T19:13:02.500Z,1.70
2022-11-29T19:15:30.535Z,1.60
2022-11-29T19:17:58.500Z,1.90
2022-11-29T19:20:26.517Z,1.70
2022-11-29T19:23:00.508Z,1.60
2022-11-29T19:25:28.752Z,1.70
2022-11-29T19:27:56.841Z,1.70
2022-11-29T19:30:24.892Z,1.60
2022-11-29T19:32:52.895Z,1.60
2022-11-29T19:35:20.907Z,1.70
2022-11-29T19:37:48.932Z,1.60
2022-11-29T19:40:18.909Z,1.60
2022-11-29T19:42:48.632Z,1.60
2022-11-29T19:45:18.040Z,1.60
2022-11-29T19:47:46.770Z,1.60
2022-11-29T19:50:14.937Z,1.50
2022-11-29T19:52:42.965Z,1.60
2022-11-29T19:55:11.206Z,1.70
2022-11-29T19:57:40.859Z,1.60
2022-11-29T20:00:10.173Z,1.90
2022-11-29T20:02:38.248Z,1.60
2022-11-29T20:05:07.513Z,1.50
2022-11-29T20:07:35.696Z,1.60
2022-11-29T20:10:03.976Z,1.50
2022-11-29T20:12:32.853Z,1.50
2022-11-29T20:15:02.482Z,1.80
2022-11-29T20:17:32.651Z,1.50
2022-11-29T20:20:02.880Z,1.50
2022-11-29T20:22:33.449Z,1.50
2022-11-29T20:25:02.903Z,1.50
2022-11-29T20:27:31.054Z,1.50
2022-11-29T20:29:59.060Z,1.60
2022-11-29T20:32:28.697Z,1.60
2022-11-29T20:34:58.507Z,1.60
2022-11-29T20:37:36.460Z,1.50
2022-11-29T20:40:07.644Z,1.50
2022-11-29T20:43:04.043Z,1.50
2022-11-29T20:45:32.756Z,1.50
2022-11-29T20:48:12.002Z,1.50
2022-11-29T20:50:41.070Z,1.50
2022-11-29T20:53:21.824Z,1.60
2022-11-29T20:55:50.095Z,1.50
2022-11-29T20:58:19.511Z,1.50
2022-11-29T21:00:47.862Z,1.50
2022-11-29T21:03:19.127Z,1.50
2022-11-29T21:05:47.868Z,1.80
2022-11-29T21:08:16.940Z,1.90
2022-11-29T21:10:45.506Z,1.50
2022-11-29T21:13:15.178Z,1.50
2022-11-29T21:15:44.391Z,1.50
2022-11-29T21:18:22.613Z,1.50
2022-11-29T21:21:13.230Z,1.50
2022-11-29T21:23:57.303Z,2.00
2022-11-29T21:26:30.306Z,1.60
2022-11-29T21:29:13.201Z,1.60
2022-11-29T21:31:42.033Z,1.90
2022-11-29T21:34:12.320Z,1.50
2022-11-29T21:36:41.123Z,1.60
2022-11-29T21:39:13.696Z,1.50
2022-11-29T21:41:42.601Z,1.80
2022-11-29T21:44:11.271Z,1.50
2022-11-29T21:46:39.562Z,1.50
2022-11-29T21:49:08.813Z,2.10
2022-11-29T21:51:38.253Z,1.50
2022-11-29T21:54:06.428Z,1.50
2022-11-29T21:56:34.876Z,1.50
2022-11-29T21:59:03.296Z,1.50
2022-11-29T22:01:33.899Z,1.50
2022-11-29T22:04:02.366Z,1.50
2022-11-29T22:06:30.469Z,1.50
2022-11-29T22:09:00.121Z,1.50
2022-11-29T22:11:35.466Z,1.50
2022-11-29T22:14:18.514Z,1.50
2022-11-29T22:16:48.992Z,1.40
2022-11-29T22:19:18.975Z,1.50
2022-11-29T22:21:49.590Z,1.90
2022-11-29T22:24:21.600Z,1.40
2022-11-29T22:26:50.514Z,1.70
2022-11-29T22:29:18.993Z,1.40
2022-11-29T22:31:49.592Z,1.70
2022-11-29T22:34:17.721Z,1.40
2022-11-29T22:36:46.109Z,1.40
2022-11-29T22:39:14.294Z,1.30
2022-11-29T22:41:46.113Z,1.40
2022-11-29T22:44:17.411Z,1.30
2022-11-29T22:46:45.514Z,1.20
2022-11-29T22:49:13.583Z,1.20
2022-11-29T22:51:41.658Z,1.30
2022-11-29T22:54:11.844Z,1.80
2022-11-29T22:56:41.758Z,1.20
2022-11-29T22:59:11.647Z,1.20
2022-11-29T23:01:41.231Z,1.30
2022-11-29T23:04:10.668Z,1.30
2022-11-29T23:06:41.324Z,1.30
2022-11-29T23:09:15.254Z,1.30
2022-11-29T23:11:44.129Z,1.30
2022-11-29T23:14:14.137Z,1.40
2022-11-29T23:16:42.520Z,1.40
2022-11-29T23:19:10.987Z,1.40
2022-11-29T23:21:40.731Z,1.30
2022-11-29T23:24:09.212Z,1.60
2022-11-29T23:26:40.306Z,1.20
2022-11-29T23:29:10.784Z,1.70
2022-11-29T23:31:41.307Z,1.30
2022-11-29T23:34:09.730Z,1.30
2022-11-29T23:36:37.888Z,1.20
2022-11-29T23:39:06.677Z,1.20
2022-11-29T23:41:35.204Z,1.30
2022-11-29T23:44:04.684Z,1.30
2022-11-29T23:46:33.113Z,1.20
2022-11-29T23:49:02.683Z,1.20
2022-11-29T23:51:30.793Z,1.60
2022-11-29T23:53:58.926Z,1.20
2022-11-29T23:56:27.191Z,1.20
2022-11-29T23:58:55.340Z,1.10
